Time;durP1;ratioP1;P1;durP2;ratioP2;P2;SDS_P1;SDS_P2;PMS_P1;PMS_P2;Temp;Humidity;BMP_temperature;BMP_pressure;BME280_temperature;BME280_humidity;BME280_pressure;Samples;Min_cycle;Max_cycle;Signal;HPM_P1;HPM_P2
2022/03/08 00:00:24;;;;;;;24.60;13.20;;;;;;;-1.98;76.75;99207.20;218808;1278;22818;-70
2022/03/08 00:05:27;;;;;;;30.80;16.10;;;;;;;-2.03;76.88;99204.72;219329;1277;22546;-69
2022/03/08 00:10:35;;;;;;;28.10;14.40;;;;;;;-2.05;77.10;99212.63;219038;1277;22553;-69
2022/03/08 00:15:42;;;;;;;28.50;14.90;;;;;;;-2.08;77.07;99209.90;218825;1277;26762;-69
2022/03/08 00:20:45;;;;;;;32.20;16.30;;;;;;;-2.11;77.11;99214.79;218528;1281;25286;-68
2022/03/08 00:25:47;;;;;;;39.50;17.10;;;;;;;-2.12;77.06;99223.02;218836;1277;22647;-68
2022/03/08 00:30:53;;;;;;;37.10;17.80;;;;;;;-2.13;77.24;99222.41;218888;1276;22572;-68
2022/03/08 00:35:56;;;;;;;31.80;16.30;;;;;;;-2.13;77.25;99221.55;219046;1276;23465;-69
2022/03/08 00:41:00;;;;;;;30.10;15.40;;;;;;;-2.12;77.40;99220.39;219057;1277;22539;-69
2022/03/08 00:46:03;;;;;;;31.00;15.70;;;;;;;-2.11;77.45;99220.95;219136;1276;22532;-69
2022/03/08 00:51:06;;;;;;;32.80;17.10;;;;;;;-2.10;77.32;99215.23;218871;1276;22707;-69
2022/03/08 00:56:09;;;;;;;27.80;14.50;;;;;;;-2.10;77.40;99216.20;218941;1276;22551;-68
2022/03/08 01:01:12;;;;;;;31.00;16.70;;;;;;;-2.11;77.26;99215.66;218919;1276;22624;-68
2022/03/08 01:06:14;;;;;;;28.60;15.40;;;;;;;-2.17;77.36;99216.94;218576;1278;25443;-69
2022/03/08 01:11:17;;;;;;;33.20;16.40;;;;;;;-2.25;77.22;99207.75;219881;1277;22893;-69
2022/03/08 01:16:20;;;;;;;30.90;16.20;;;;;;;-2.31;77.33;99208.54;218962;1276;22637;-69
2022/03/08 01:21:23;;;;;;;29.30;15.40;;;;;;;-2.32;77.39;99210.75;218963;1276;24302;-69
2022/03/08 01:26:28;;;;;;;34.70;17.00;;;;;;;-2.35;77.49;99209.93;218815;1276;22621;-70
2022/03/08 01:31:33;;;;;;;36.00;17.30;;;;;;;-2.42;77.55;99214.61;218960;1276;23078;-70
2022/03/08 01:36:42;;;;;;;38.20;17.00;;;;;;;-2.47;77.78;99219.54;218927;1276;22548;-68
2022/03/08 01:41:44;;;;;;;29.50;15.80;;;;;;;-2.49;78.03;99224.33;218662;1276;22621;-69
2022/03/08 01:46:47;;;;;;;34.60;16.70;;;;;;;-2.50;77.93;99229.62;219246;1276;22666;-68
2022/03/08 01:51:50;;;;;;;26.10;14.50;;;;;;;-2.51;78.18;99227.47;218843;1276;26858;-69
2022/03/08 01:56:53;;;;;;;32.50;15.70;;;;;;;-2.53;78.12;99229.47;218732;1276;22541;-70
2022/03/08 02:01:58;;;;;;;26.70;14.10;;;;;;;-2.56;78.00;99228.70;218888;1276;26404;-69
2022/03/08 02:07:04;;;;;;;28.60;14.60;;;;;;;-2.57;78.10;99228.04;218786;1276;26553;-69
2022/03/08 02:12:11;;;;;;;25.60;13.00;;;;;;;-2.55;78.19;99222.40;218726;1276;22829;-68
2022/03/08 02:17:19;;;;;;;23.50;12.10;;;;;;;-2.55;77.98;99216.67;218419;1277;22640;-69
2022/03/08 02:22:23;;;;;;;23.90;12.50;;;;;;;-2.58;78.12;99208.41;218876;1276;25604;-69
2022/03/08 02:27:26;;;;;;;24.60;12.10;;;;;;;-2.64;78.18;99210.14;218664;1276;22621;-69
2022/03/08 02:32:31;;;;;;;25.50;13.00;;;;;;;-2.69;78.28;99205.36;218722;1276;22595;-68
2022/03/08 02:37:55;;;;;;;23.50;12.40;;;;;;;-2.71;78.37;99206.42;218804;1276;22599;-68
2022/03/08 02:43:02;;;;;;;22.90;12.00;;;;;;;-2.77;78.37;99212.67;218991;1276;22759;-69
2022/03/08 02:48:09;;;;;;;22.40;12.40;;;;;;;-2.78;78.47;99216.31;219089;1276;24261;-69
2022/03/08 02:53:12;;;;;;;23.60;11.90;;;;;;;-2.77;78.54;99210.21;218852;1276;22605;-69
2022/03/08 02:58:14;;;;;;;22.20;11.10;;;;;;;-2.75;78.46;99204.19;218659;1276;22757;-68
2022/03/08 03:03:17;;;;;;;22.70;10.80;;;;;;;-2.72;78.62;99202.46;219058;1276;22659;-71
2022/03/08 03:08:19;;;;;;;17.70;9.30;;;;;;;-2.71;78.47;99201.88;218769;1276;26158;-67
2022/03/08 03:13:22;;;;;;;18.20;10.10;;;;;;;-2.72;78.59;99202.88;218866;1276;22763;-67
2022/03/08 03:18:24;;;;;;;16.50;8.80;;;;;;;-2.73;78.66;99203.55;219038;1276;22630;-69
2022/03/08 03:23:26;;;;;;;21.80;10.30;;;;;;;-2.75;78.68;99205.60;218967;1276;25519;-68
2022/03/08 03:28:31;;;;;;;17.90;9.30;;;;;;;-2.76;78.70;99209.23;218797;1276;22767;-69
2022/03/08 03:33:34;;;;;;;19.80;9.00;;;;;;;-2.78;78.62;99214.37;218948;1276;25642;-69
2022/03/08 03:38:36;;;;;;;18.50;9.10;;;;;;;-2.80;78.70;99219.40;218944;1276;25719;-68
2022/03/08 03:43:38;;;;;;;16.80;8.40;;;;;;;-2.84;78.75;99221.63;218842;1276;25598;-68
2022/03/08 03:48:41;;;;;;;15.30;8.40;;;;;;;-2.86;78.90;99224.11;218926;1276;25402;-68
2022/03/08 03:53:46;;;;;;;22.10;10.40;;;;;;;-2.92;78.77;99225.48;218810;1276;22575;-70
2022/03/08 03:58:52;;;;;;;19.10;9.50;;;;;;;-2.99;78.71;99225.58;218897;1276;24953;-68
2022/03/08 04:03:55;;;;;;;20.30;10.30;;;;;;;-3.08;78.88;99230.86;218966;1276;25360;-70
2022/03/08 04:08:58;;;;;;;22.40;10.80;;;;;;;-3.16;78.97;99231.67;218996;1276;25730;-69
2022/03/08 04:14:03;;;;;;;22.80;10.00;;;;;;;-3.18;79.13;99236.05;219035;1276;22870;-68
2022/03/08 04:19:15;;;;;;;19.90;9.50;;;;;;;-3.19;79.24;99238.83;218965;1276;22868;-68
2022/03/08 04:24:20;;;;;;;18.50;10.10;;;;;;;-3.23;79.17;99243.10;219015;1276;22736;-68
2022/03/08 04:29:22;;;;;;;20.30;11.30;;;;;;;-3.26;79.30;99251.90;218936;1276;22610;-70
2022/03/08 04:34:25;;;;;;;21.90;11.70;;;;;;;-3.30;79.36;99257.89;218818;1276;22595;-68
2022/03/08 04:39:27;;;;;;;22.20;12.20;;;;;;;-3.34;79.37;99257.71;218930;1276;24241;-68
2022/03/08 04:44:33;;;;;;;22.30;11.60;;;;;;;-3.40;79.29;99255.88;218951;1276;25546;-68
2022/03/08 04:49:35;;;;;;;20.00;11.10;;;;;;;-3.46;79.40;99270.52;218895;1276;22642;-68
2022/03/08 04:54:38;;;;;;;25.50;13.20;;;;;;;-3.57;79.10;99271.81;218836;1276;25604;-68
2022/03/08 04:59:40;;;;;;;26.70;15.00;;;;;;;-3.76;78.75;99267.79;218966;1276;22606;-67
2022/03/08 05:04:42;;;;;;;32.40;15.70;;;;;;;-3.95;78.79;99275.16;218926;1276;24251;-69
2022/03/08 05:10:11;;;;;;;30.90;15.60;;;;;;;-4.14;78.91;99271.50;218963;1276;25569;-68
2022/03/08 05:15:36;;;;;;;31.90;17.60;;;;;;;-4.21;79.24;99278.41;218823;1276;24332;-68
2022/03/08 05:21:00;;;;;;;31.60;17.40;;;;;;;-4.16;79.55;99284.34;218925;1276;24384;-70
2022/03/08 05:26:04;;;;;;;36.30;17.50;;;;;;;-4.05;79.70;99290.09;218870;1276;25699;-68
2022/03/08 05:31:07;;;;;;;33.50;17.40;;;;;;;-3.92;79.67;99299.05;218996;1276;25339;-68
2022/03/08 05:36:09;;;;;;;40.50;20.70;;;;;;;-3.84;79.50;99299.44;218968;1276;25655;-69
2022/03/08 05:41:14;;;;;;;43.30;22.80;;;;;;;-3.73;79.46;99300.49;218872;1276;22644;-70
2022/03/08 05:46:17;;;;;;;42.60;22.00;;;;;;;-3.61;79.61;99307.73;218831;1276;23063;-69
2022/03/08 05:51:20;;;;;;;42.50;21.10;;;;;;;-3.43;79.65;99309.52;218721;1276;22657;-69
2022/03/08 05:56:22;;;;;;;44.00;21.90;;;;;;;-3.25;79.68;99308.23;218924;1276;22630;-69
2022/03/08 06:01:24;;;;;;;39.80;22.00;;;;;;;-3.10;79.54;99314.20;218759;1276;22657;-69
2022/03/08 06:06:27;;;;;;;42.50;22.20;;;;;;;-2.95;79.47;99321.48;219087;1276;22588;-69
2022/03/08 06:11:30;;;;;;;44.90;21.90;;;;;;;-2.83;79.35;99326.13;219083;1276;22546;-69
2022/03/08 06:16:35;;;;;;;38.10;22.40;;;;;;;-2.69;79.49;99322.98;218847;1276;22595;-69
2022/03/08 06:21:38;;;;;;;41.20;22.40;;;;;;;-2.52;79.48;99322.55;218683;1276;22615;-68
2022/03/08 06:26:53;;;;;;;39.80;22.30;;;;;;;-2.38;79.30;99327.34;218954;1276;24368;-70
2022/03/08 06:31:56;;;;;;;44.20;25.40;;;;;;;-2.20;79.39;99334.95;218968;1276;22643;-69
2022/03/08 06:36:58;;;;;;;46.80;23.80;;;;;;;-1.97;79.21;99339.06;219048;1276;22776;-69
2022/03/08 06:42:01;;;;;;;46.50;24.00;;;;;;;-1.74;79.07;99343.20;218895;1276;22619;-68
2022/03/08 06:47:03;;;;;;;48.10;24.00;;;;;;;-1.59;78.69;99345.65;218685;1276;24214;-69
2022/03/08 06:52:21;;;;;;;48.20;23.80;;;;;;;-1.50;78.48;99350.35;218791;1276;25415;-69
2022/03/08 06:57:26;;;;;;;49.70;24.50;;;;;;;-1.46;78.16;99361.61;218622;1276;23033;-69
2022/03/08 07:02:41;;;;;;;24.60;13.90;;;;;;;-1.34;78.58;99367.40;218472;1276;22628;-69
2022/03/08 07:08:14;;;;;;;23.80;13.20;;;;;;;-1.14;78.94;99367.44;218524;1276;22674;-70
2022/03/08 07:13:16;;;;;;;23.80;13.80;;;;;;;-0.95;78.66;99360.69;220070;1276;23332;-70
2022/03/08 07:18:23;;;;;;;24.30;14.10;;;;;;;-0.80;78.54;99355.30;218797;1276;24290;-69
2022/03/08 07:23:27;;;;;;;25.40;14.60;;;;;;;-0.61;78.64;99350.72;218663;1276;213222;-69
2022/03/08 07:28:30;;;;;;;28.70;14.60;;;;;;;-0.41;78.58;99363.13;218642;1276;22540;-70
2022/03/08 07:33:34;;;;;;;23.70;13.20;;;;;;;-0.29;77.82;99363.16;218699;1278;22560;-70
2022/03/08 07:38:37;;;;;;;26.40;14.40;;;;;;;-0.27;77.67;99360.09;218604;1276;22554;-69
2022/03/08 07:43:40;;;;;;;25.50;14.40;;;;;;;-0.19;77.70;99365.52;218468;1276;22670;-69
2022/03/08 07:48:43;;;;;;;25.30;14.30;;;;;;;-0.06;77.51;99366.45;218626;1276;22806;-68
2022/03/08 07:54:09;;;;;;;28.10;14.80;;;;;;;0.03;77.19;99374.73;218864;1276;22546;-69
2022/03/08 07:59:26;;;;;;;25.10;13.70;;;;;;;0.15;77.19;99374.92;218723;1276;22563;-69
2022/03/08 08:04:40;;;;;;;24.20;13.60;;;;;;;0.27;76.95;99373.35;218871;1276;22537;-69
2022/03/08 08:09:42;;;;;;;21.10;12.70;;;;;;;0.32;76.84;99370.47;218696;1276;22535;-69
2022/03/08 08:14:45;;;;;;;24.80;14.10;;;;;;;0.41;76.48;99368.63;218763;1276;22557;-70
2022/03/08 08:19:47;;;;;;;27.10;15.70;;;;;;;0.52;76.71;99378.25;218591;1276;22600;-69
2022/03/08 08:24:49;;;;;;;22.80;14.10;;;;;;;0.63;76.38;99380.11;218680;1276;24272;-69
2022/03/08 08:29:52;;;;;;;23.60;13.80;;;;;;;0.68;76.11;99379.98;218811;1276;22547;-69
2022/03/08 08:34:54;;;;;;;23.80;12.80;;;;;;;0.63;75.74;99384.13;218387;1276;22560;-68
2022/03/08 08:39:56;;;;;;;21.50;12.60;;;;;;;0.67;75.82;99386.44;218801;1276;24387;-68
2022/03/08 08:44:59;;;;;;;20.40;13.20;;;;;;;0.73;75.61;99391.45;218959;1276;22547;-68
2022/03/08 08:50:07;;;;;;;23.00;13.00;;;;;;;0.78;75.63;99393.33;219044;1276;26539;-69
2022/03/08 08:55:20;;;;;;;21.50;12.40;;;;;;;0.92;75.62;99393.65;218849;1275;23903;-69
2022/03/08 09:00:23;;;;;;;21.20;11.80;;;;;;;1.12;75.41;99400.58;218654;1276;22665;-69
2022/03/08 09:05:34;;;;;;;22.20;13.40;;;;;;;1.32;75.28;99407.16;218461;1276;24247;-70
2022/03/08 09:10:37;;;;;;;17.90;10.90;;;;;;;1.57;75.19;99405.50;218767;1276;24293;-69
2022/03/08 09:15:43;;;;;;;19.50;10.60;;;;;;;1.82;74.70;99408.17;218746;1276;24740;-69
2022/03/08 09:20:45;;;;;;;14.40;9.40;;;;;;;2.01;74.37;99409.52;218754;1276;25377;-70
2022/03/08 09:26:22;;;;;;;16.80;8.70;;;;;;;2.10;73.50;99412.14;219324;1276;24238;-69
2022/03/08 09:31:31;;;;;;;17.00;10.50;;;;;;;2.13;73.00;99415.97;218277;1276;22615;-68
2022/03/08 09:36:39;;;;;;;17.00;9.70;;;;;;;2.14;72.36;99423.77;218553;1276;22557;-69
2022/03/08 09:42:03;;;;;;;15.90;10.30;;;;;;;2.12;72.25;99421.26;218592;1276;22568;-70
2022/03/08 09:47:07;;;;;;;16.20;9.60;;;;;;;2.09;72.16;99422.19;218659;1276;25556;-69
2022/03/08 09:52:10;;;;;;;11.80;7.70;;;;;;;2.06;71.54;99432.52;218874;1276;23497;-68
2022/03/08 09:57:14;;;;;;;15.60;9.00;;;;;;;2.08;71.45;99429.67;218720;1276;22559;-70
2022/03/08 10:02:48;;;;;;;;;;;;;;;;;;;;;
2022/03/08 10:08:21;;;;;;;12.40;6.60;;;;;;;2.25;70.26;99433.64;218399;1276;22938;-72
2022/03/08 10:13:36;;;;;;;9.20;5.30;;;;;;;2.21;70.09;99424.40;219830;1276;22642;-69
2022/03/08 10:18:42;;;;;;;8.90;4.80;;;;;;;2.26;69.93;99422.33;218614;1276;23089;-70
2022/03/08 10:24:18;;;;;;;5.10;3.80;;;;;;;2.43;69.05;99414.06;218417;1276;24262;-69
2022/03/08 10:29:28;;;;;;;7.70;3.80;;;;;;;2.68;68.48;99416.27;218704;1276;23193;-70
2022/03/08 10:34:35;;;;;;;6.40;3.70;;;;;;;3.00;67.74;99405.41;218789;1276;24494;-69
2022/03/08 10:40:00;;;;;;;5.50;3.50;;;;;;;3.27;67.50;99397.19;218774;1276;22498;-69
2022/03/08 10:45:15;;;;;;;4.80;3.40;;;;;;;3.59;66.15;99396.58;218958;1276;24249;-69
2022/03/08 10:50:19;;;;;;;5.00;3.40;;;;;;;3.76;65.52;99394.08;219015;1276;22713;-69
2022/03/08 10:55:27;;;;;;;4.00;3.10;;;;;;;3.85;64.49;99394.80;218766;1276;24298;-69
2022/03/08 11:01:06;;;;;;;4.60;3.60;;;;;;;3.81;63.91;99395.52;218947;1276;22641;-69
2022/03/08 11:06:42;;;;;;;7.00;4.20;;;;;;;3.69;63.16;99392.10;219879;1276;24254;-68
2022/03/08 11:11:57;;;;;;;7.30;4.60;;;;;;;3.60;63.11;99387.10;218764;1276;25454;-68
2022/03/08 11:17:00;;;;;;;9.50;5.10;;;;;;;3.70;63.11;99383.57;218574;1276;22535;-68
2022/03/08 11:22:03;;;;;;;6.90;4.40;;;;;;;3.93;63.20;99381.85;218829;1276;24260;-68
2022/03/08 11:27:19;;;;;;;9.30;5.60;;;;;;;3.99;62.01;99380.30;218609;1276;25270;-67
2022/03/08 11:32:39;;;;;;;6.40;4.60;;;;;;;3.99;61.94;99380.66;218689;1276;25323;-67
2022/03/08 11:37:50;;;;;;;6.90;4.90;;;;;;;3.96;61.65;99377.68;218725;1276;22574;-68
2022/03/08 11:43:01;;;;;;;8.00;4.60;;;;;;;3.78;61.08;99375.37;219259;1276;25311;-67
2022/03/08 11:48:09;;;;;;;6.00;4.20;;;;;;;3.66;61.20;99364.23;219058;1276;25405;-68
2022/03/08 11:53:17;;;;;;;6.50;4.80;;;;;;;3.81;61.95;99355.80;218799;1276;22789;-67
2022/03/08 11:58:43;;;;;;;7.50;4.80;;;;;;;4.00;61.22;99350.36;218785;1276;22659;-68
2022/03/08 12:03:52;;;;;;;9.30;5.20;;;;;;;3.96;60.72;99348.67;218854;1276;22806;-67
2022/03/08 12:09:13;;;;;;;;;;;;;;;;;;;;;
2022/03/08 12:14:21;;;;;;;6.10;4.60;;;;;;;3.86;60.88;99345.68;218560;1276;23163;-68
2022/03/08 12:20:13;;;;;;;6.80;4.70;;;;;;;4.02;60.24;99336.55;218828;1276;22547;-68
2022/03/08 12:26:24;;;;;;;7.60;4.80;;;;;;;4.29;59.63;99332.10;218284;1276;25530;-69
2022/03/08 12:31:59;;;;;;;6.90;4.40;;;;;;;4.36;59.59;99326.04;219399;1276;24107;-69
2022/03/08 12:37:12;;;;;;;7.30;4.80;;;;;;;4.44;59.30;99327.63;219179;1276;23097;-68
2022/03/08 12:42:38;;;;;;;6.40;4.60;;;;;;;4.41;58.63;99312.83;218589;1276;22624;-69
2022/03/08 12:47:59;;;;;;;;;;;;;;;4.44;58.34;99310.50;218487;1276;24287;-68
2022/03/08 12:53:07;;;;;;;6.50;4.80;;;;;;;4.64;57.93;99309.77;218693;1276;24251;-69
2022/03/08 12:58:27;;;;;;;7.40;5.40;;;;;;;4.77;57.64;99307.84;218679;1276;24259;-68
2022/03/08 13:03:50;;;;;;;6.60;5.10;;;;;;;5.08;57.78;99310.85;218623;1276;24378;-68
2022/03/08 13:09:03;;;;;;;8.20;5.90;;;;;;;5.34;56.84;99308.79;218558;1276;22596;-68
2022/03/08 13:14:12;;;;;;;7.70;5.20;;;;;;;5.32;56.33;99303.02;218669;1276;22489;-69
2022/03/08 13:19:16;;;;;;;8.00;5.90;;;;;;;5.38;56.42;99293.33;218525;1277;22606;-68
2022/03/08 13:24:19;;;;;;;7.90;6.20;;;;;;;5.50;56.14;99292.03;218642;1276;24245;-67
2022/03/08 13:29:42;;;;;;;6.60;5.40;;;;;;;5.40;55.49;99297.83;218395;1277;22560;-68
2022/03/08 13:35:00;;;;;;;9.60;5.70;;;;;;;5.29;55.21;99300.59;218712;1276;22587;-68
2022/03/08 13:40:05;;;;;;;7.90;6.60;;;;;;;5.24;54.77;99310.80;218678;1276;23164;-70
2022/03/08 13:45:11;;;;;;;7.60;6.50;;;;;;;5.35;55.21;99315.71;218835;1276;23177;-69
2022/03/08 13:50:17;;;;;;;9.40;7.00;;;;;;;5.36;54.68;99309.62;218720;1276;23036;-68
2022/03/08 13:55:20;;;;;;;8.10;6.50;;;;;;;5.22;54.83;99314.21;218671;1276;22785;-69
2022/03/08 14:00:32;;;;;;;8.70;6.30;;;;;;;5.08;54.82;99316.69;218700;1276;24581;-67
2022/03/08 14:05:50;;;;;;;6.70;5.90;;;;;;;4.92;54.79;99319.38;218783;1276;23105;-68
2022/03/08 14:10:57;;;;;;;6.80;5.80;;;;;;;4.72;54.61;99318.70;218615;1276;22587;-68
2022/03/08 14:16:05;;;;;;;;;;;;;;;4.53;54.75;99312.75;218595;1276;25300;-67
2022/03/08 14:21:27;;;;;;;6.60;5.30;;;;;;;4.39;54.98;99310.77;218712;1276;22570;-66
2022/03/08 14:26:33;;;;;;;6.90;4.90;;;;;;;4.32;55.19;99315.60;218699;1277;25413;-67
2022/03/08 14:31:35;;;;;;;9.80;4.40;;;;;;;4.19;55.18;99314.34;218763;1276;25345;-66
2022/03/08 14:36:39;;;;;;;5.20;4.50;;;;;;;3.98;55.36;99308.85;219095;1276;24786;-67
2022/03/08 14:42:13;;;;;;;8.80;6.00;;;;;;;3.80;55.50;99301.92;218884;1277;22564;-67
2022/03/08 14:47:20;;;;;;;7.50;4.90;;;;;;;3.66;55.90;99298.59;218602;1276;25490;-68
2022/03/08 14:53:08;;;;;;;;;;;;;;;;;;;;;
2022/03/08 14:58:54;;;;;;;6.50;4.80;;;;;;;3.52;56.16;99282.23;218477;1277;22607;-69
2022/03/08 15:03:56;;;;;;;5.60;4.30;;;;;;;3.45;56.50;99286.35;218651;1276;22733;-69
2022/03/08 15:08:59;;;;;;;6.30;4.80;;;;;;;3.43;56.35;99290.05;218774;1276;24116;-69
2022/03/08 15:14:03;;;;;;;10.70;5.80;;;;;;;3.33;56.36;99290.20;218887;1276;24286;-69
2022/03/08 15:19:06;;;;;;;9.90;6.30;;;;;;;3.26;56.44;99287.79;218971;1277;22566;-69
2022/03/08 15:24:08;;;;;;;8.40;5.80;;;;;;;3.15;56.53;99291.17;218875;1276;25383;-69
2022/03/08 15:29:11;;;;;;;7.70;5.50;;;;;;;3.06;56.73;99287.40;218868;1277;24256;-68
2022/03/08 15:34:13;;;;;;;8.10;5.50;;;;;;;3.02;56.99;99285.66;218974;1276;22540;-70
2022/03/08 15:39:15;;;;;;;10.90;6.90;;;;;;;2.99;57.07;99290.46;219019;1276;22567;-70
2022/03/08 15:44:18;;;;;;;10.20;7.80;;;;;;;3.02;57.67;99294.86;219138;1277;22542;-69
2022/03/08 15:49:21;;;;;;;8.90;6.50;;;;;;;3.02;57.39;99299.96;219102;1277;22548;-71
2022/03/08 15:54:23;;;;;;;10.60;7.40;;;;;;;3.00;57.42;99294.20;219033;1278;22571;-68
2022/03/08 15:59:25;;;;;;;12.40;8.20;;;;;;;2.98;57.53;99299.60;218996;1276;24834;-68
2022/03/08 16:04:27;;;;;;;11.00;7.80;;;;;;;2.92;57.52;99309.02;219015;1277;24717;-69
2022/03/08 16:09:30;;;;;;;12.50;8.10;;;;;;;2.82;57.69;99314.06;219041;1277;22536;-69
2022/03/08 16:14:37;;;;;;;12.50;8.70;;;;;;;2.73;57.96;99309.75;219145;1276;24287;-69
2022/03/08 16:19:39;;;;;;;14.20;8.50;;;;;;;2.65;58.26;99310.02;219024;1276;22566;-69
2022/03/08 16:24:42;;;;;;;13.10;8.10;;;;;;;2.56;58.66;99308.50;219011;1277;26368;-70
2022/03/08 16:29:44;;;;;;;13.80;9.80;;;;;;;2.50;58.61;99312.43;219051;1276;25493;-69
2022/03/08 16:34:46;;;;;;;13.80;9.80;;;;;;;2.45;58.97;99317.17;219006;1278;22620;-69
2022/03/08 16:39:52;;;;;;;13.30;8.60;;;;;;;2.38;58.96;99316.02;219244;1277;23225;-68
2022/03/08 16:44:54;;;;;;;13.70;9.70;;;;;;;2.29;59.27;99318.89;219117;1276;26505;-69
2022/03/08 16:49:57;;;;;;;14.00;9.20;;;;;;;2.20;59.62;99327.46;219180;1277;25245;-69
2022/03/08 16:54:59;;;;;;;16.00;9.40;;;;;;;2.12;59.90;99334.16;219220;1277;25712;-69
2022/03/08 17:00:03;;;;;;;12.50;8.40;;;;;;;2.08;60.17;99344.45;219029;1277;22475;-68
2022/03/08 17:05:07;;;;;;;13.20;8.60;;;;;;;2.09;60.28;99350.51;218960;1277;22567;-69
2022/03/08 17:10:24;;;;;;;14.70;9.60;;;;;;;2.11;60.75;99357.05;219004;1278;26433;-69
2022/03/08 17:15:29;;;;;;;16.50;10.30;;;;;;;2.14;60.85;99363.61;218901;1277;25389;-69
2022/03/08 17:20:32;;;;;;;14.80;10.00;;;;;;;2.17;60.95;99367.70;218811;1278;25099;-69
2022/03/08 17:26:01;;;;;;;15.80;10.00;;;;;;;2.19;61.11;99366.30;218936;1277;22540;-69
2022/03/08 17:31:04;;;;;;;12.40;9.50;;;;;;;2.20;61.13;99366.98;219003;1277;22534;-69
2022/03/08 17:36:07;;;;;;;12.40;8.80;;;;;;;2.20;61.07;99375.15;218985;1276;22985;-70
2022/03/08 17:41:12;;;;;;;11.80;9.10;;;;;;;2.19;61.05;99376.14;219009;1277;25319;-69
2022/03/08 17:46:18;;;;;;;13.70;8.40;;;;;;;2.18;60.97;99382.17;218877;1277;23227;-69
2022/03/08 17:51:21;;;;;;;13.50;8.40;;;;;;;2.17;60.85;99384.61;219172;1277;22700;-69
2022/03/08 17:56:28;;;;;;;12.70;8.70;;;;;;;2.15;60.82;99378.55;218820;1277;22629;-70
2022/03/08 18:01:31;;;;;;;16.60;8.70;;;;;;;2.13;60.82;99379.17;218814;1276;22627;-69
2022/03/08 18:06:34;;;;;;;13.40;8.70;;;;;;;2.13;60.84;99384.09;218672;1276;22540;-69
2022/03/08 18:11:36;;;;;;;21.90;13.00;;;;;;;2.12;60.69;99386.90;218808;1277;24285;-68
2022/03/08 18:16:44;;;;;;;32.60;17.50;;;;;;;2.08;60.93;99382.48;218685;1277;22724;-69
2022/03/08 18:21:47;;;;;;;35.90;19.40;;;;;;;2.03;61.02;99377.51;219052;1277;24572;-67
2022/03/08 18:26:57;;;;;;;39.70;21.90;;;;;;;1.98;61.10;99383.61;219082;1277;22557;-69
2022/03/08 18:32:00;;;;;;;45.40;24.10;;;;;;;1.88;61.35;99376.70;219007;1277;25375;-70
2022/03/08 18:37:02;;;;;;;43.90;24.90;;;;;;;1.73;61.64;99364.89;218897;1277;22802;-69
2022/03/08 18:42:05;;;;;;;46.30;23.70;;;;;;;1.53;62.05;99358.45;218987;1277;22637;-69
2022/03/08 18:47:17;;;;;;;;;;;;;;;;;;;;;
2022/03/08 18:52:30;;;;;;;53.40;27.00;;;;;;;1.20;62.50;99342.26;219143;1277;22621;-70
2022/03/08 18:57:32;;;;;;;45.10;23.20;;;;;;;1.09;62.66;99339.77;219199;1277;22591;-69
2022/03/08 19:02:48;;;;;;;49.30;24.20;;;;;;;0.99;62.97;99331.05;219026;1277;22564;-70
2022/03/08 19:08:11;;;;;;;49.50;25.80;;;;;;;0.83;63.08;99331.84;219087;1277;25251;-69
2022/03/08 19:13:14;;;;;;;57.50;26.60;;;;;;;0.66;63.03;99334.84;219115;1277;25253;-69
2022/03/08 19:18:17;;;;;;;47.60;26.60;;;;;;;0.51;63.11;99333.66;219007;1277;22634;-69
2022/03/08 19:23:25;;;;;;;47.70;25.60;;;;;;;0.36;63.43;99325.09;218679;1277;434378;-69
2022/03/08 19:28:28;;;;;;;41.70;22.00;;;;;;;0.22;63.65;99328.73;219931;1277;22577;-69
2022/03/08 19:33:33;;;;;;;38.90;20.30;;;;;;;0.12;63.99;99324.79;219150;1277;22577;-70
2022/03/08 19:38:35;;;;;;;40.40;19.80;;;;;;;0.06;64.30;99327.48;219290;1277;22576;-70
2022/03/08 19:43:40;;;;;;;37.70;18.60;;;;;;;0.02;64.56;99325.02;219166;1276;22729;-69
2022/03/08 19:48:50;;;;;;;35.40;19.40;;;;;;;-0.00;64.50;99327.08;219061;1277;22687;-69
2022/03/08 19:53:52;;;;;;;40.20;19.50;;;;;;;-0.06;64.90;99325.60;219102;1277;22701;-69
2022/03/08 19:58:56;;;;;;;45.00;20.30;;;;;;;-0.14;65.00;99322.08;219640;1277;22812;-70
2022/03/08 20:04:18;;;;;;;39.20;21.70;;;;;;;-0.21;65.04;99329.51;219116;1277;22701;-69
2022/03/08 20:09:24;;;;;;;42.80;22.10;;;;;;;-0.30;65.10;99332.46;218962;1276;22561;-69
2022/03/08 20:14:26;;;;;;;46.40;22.00;;;;;;;-0.41;65.37;99338.78;219211;1275;22590;-70
2022/03/08 20:19:29;;;;;;;50.30;23.60;;;;;;;-0.50;65.98;99344.05;218962;1276;22562;-70
2022/03/08 20:24:34;;;;;;;49.50;24.60;;;;;;;-0.60;66.02;99342.42;219016;1277;22787;-69
2022/03/08 20:29:37;;;;;;;44.90;22.90;;;;;;;-0.67;66.12;99338.33;219097;1277;22630;-69
2022/03/08 20:34:39;;;;;;;50.20;25.30;;;;;;;-0.75;66.53;99338.69;219055;1277;22860;-70
2022/03/08 20:39:51;;;;;;;54.20;25.70;;;;;;;-0.81;66.52;99337.14;219122;1276;25426;-69
2022/03/08 20:44:58;;;;;;;52.30;26.40;;;;;;;-0.85;66.82;99337.77;218920;1277;24252;-68
2022/03/08 20:50:10;;;;;;;51.50;26.80;;;;;;;-0.88;67.07;99334.65;219064;1277;22610;-69
2022/03/08 20:55:15;;;;;;;53.70;26.00;;;;;;;-0.92;67.21;99342.57;219141;1276;22561;-69
2022/03/08 21:00:20;;;;;;;57.60;28.40;;;;;;;-0.98;67.34;99342.80;219131;1276;25450;-70
2022/03/08 21:05:23;;;;;;;55.20;27.20;;;;;;;-1.04;67.65;99346.10;219058;1277;22718;-70
2022/03/08 21:10:25;;;;;;;51.30;26.60;;;;;;;-1.11;67.78;99346.34;219049;1275;25585;-69
2022/03/08 21:15:28;;;;;;;55.60;26.80;;;;;;;-1.16;67.87;99349.95;218994;1276;22700;-69
2022/03/08 21:20:35;;;;;;;62.40;29.50;;;;;;;-1.22;68.05;99358.34;219131;1276;24251;-68
2022/03/08 21:25:38;;;;;;;57.80;29.50;;;;;;;-1.29;68.32;99356.58;219583;1276;24349;-69
2022/03/08 21:30:40;;;;;;;68.50;31.80;;;;;;;-1.35;68.50;99356.39;219018;1277;24292;-69
2022/03/08 21:35:44;;;;;;;60.20;29.80;;;;;;;-1.46;68.41;99357.89;219094;1276;25080;-68
2022/03/08 21:40:51;;;;;;;75.60;36.10;;;;;;;-1.60;68.53;99360.17;219075;1276;24962;-69
2022/03/08 21:45:54;;;;;;;70.00;34.40;;;;;;;-1.73;68.95;99360.17;219001;1276;25371;-69
2022/03/08 21:51:00;;;;;;;64.80;29.40;;;;;;;-1.83;69.05;99359.63;219082;1277;22630;-69
2022/03/08 21:56:02;;;;;;;65.60;31.90;;;;;;;-1.93;69.05;99357.59;219082;1276;23410;-70
2022/03/08 22:01:05;;;;;;;73.70;33.70;;;;;;;-1.99;69.34;99355.98;219133;1276;25622;-70
2022/03/08 22:06:07;;;;;;;62.30;31.30;;;;;;;-2.03;69.51;99363.27;219163;1276;22753;-70
2022/03/08 22:11:12;;;;;;;75.30;36.00;;;;;;;-2.04;69.79;99360.77;219104;1276;22540;-71
2022/03/08 22:16:15;;;;;;;69.60;34.90;;;;;;;-2.05;69.97;99362.96;219280;1276;22494;-69
2022/03/08 22:21:26;;;;;;;71.50;35.70;;;;;;;-2.05;70.17;99362.73;218935;1276;22578;-69
2022/03/08 22:26:29;;;;;;;71.60;34.80;;;;;;;-2.05;70.53;99359.32;218910;1276;22552;-69
2022/03/08 22:31:33;;;;;;;74.50;36.20;;;;;;;-2.05;70.52;99367.02;218979;1276;22626;-69
2022/03/08 22:36:36;;;;;;;83.00;38.80;;;;;;;-2.02;70.65;99369.44;219040;1276;23474;-68
2022/03/08 22:41:38;;;;;;;76.10;36.60;;;;;;;-1.98;70.87;99366.86;219091;1276;22590;-70
2022/03/08 22:46:40;;;;;;;81.80;38.00;;;;;;;-1.89;70.91;99370.66;219054;1276;23075;-66
2022/03/08 22:51:53;;;;;;;77.10;34.80;;;;;;;-1.78;70.97;99375.42;219200;1276;25669;-70
2022/03/08 22:56:59;;;;;;;74.60;35.80;;;;;;;-1.68;71.12;99376.13;219199;1275;22678;-69
2022/03/08 23:02:22;;;;;;;91.80;43.00;;;;;;;-1.62;70.92;99375.60;219084;1276;24009;-69
2022/03/08 23:07:24;;;;;;;77.20;37.30;;;;;;;-1.59;70.96;99382.84;219111;1276;22627;-70
2022/03/08 23:12:27;;;;;;;86.70;40.00;;;;;;;-1.56;70.90;99375.78;219170;1276;22537;-70
2022/03/08 23:17:40;;;;;;;77.10;38.50;;;;;;;-1.57;71.04;99382.20;219065;1276;22775;-70
2022/03/08 23:22:45;;;;;;;79.50;36.40;;;;;;;-1.57;71.00;99377.20;219006;1275;25389;-70
2022/03/08 23:27:57;;;;;;;75.70;36.30;;;;;;;-1.53;71.11;99369.13;219026;1276;22539;-69
2022/03/08 23:33:03;;;;;;;73.90;35.30;;;;;;;-1.49;71.30;99369.96;219101;1276;23829;-68
2022/03/08 23:38:12;;;;;;;67.30;34.70;;;;;;;-1.47;71.25;99365.60;219055;1277;22565;-69
2022/03/08 23:43:27;;;;;;;71.80;34.40;;;;;;;-1.51;71.19;99364.16;219038;1277;25411;-69
2022/03/08 23:48:30;;;;;;;67.80;33.00;;;;;;;-1.56;71.12;99355.45;219047;1276;22544;-69